createdAt,value
2018-12-14T00:00:06.249Z,7.9
2018-12-14T00:01:07.795Z,7.9
2018-12-14T00:02:09.342Z,7.9
2018-12-14T00:03:10.736Z,7.9
2018-12-14T00:04:12.101Z,7.9
2018-12-14T00:05:13.648Z,7.9
2018-12-14T00:06:14.855Z,7.9
2018-12-14T00:07:16.400Z,7.9
2018-12-14T00:08:17.923Z,7.9
2018-12-14T00:09:19.440Z,7.9
2018-12-14T00:10:20.824Z,7.9
2018-12-14T00:11:22.397Z,7.9
2018-12-14T00:12:23.942Z,7.8
2018-12-14T00:13:25.323Z,7.8
2018-12-14T00:14:26.865Z,7.8
2018-12-14T00:15:28.242Z,7.7
2018-12-14T00:16:29.765Z,7.8
2018-12-14T00:17:31.299Z,7.7
2018-12-14T00:18:32.683Z,7.7
2018-12-14T00:19:34.048Z,7.8
2018-12-14T00:20:35.269Z,7.8
2018-12-14T00:21:36.800Z,7.8
2018-12-14T00:22:38.365Z,7.8
2018-12-14T00:23:39.901Z,7.7
2018-12-14T00:24:41.251Z,7.7
2018-12-14T00:25:42.763Z,7.7
2018-12-14T00:26:44.178Z,7.6
2018-12-14T00:27:45.719Z,7.6
2018-12-14T00:28:47.259Z,7.6
2018-12-14T00:29:48.641Z,7.5
2018-12-14T00:30:49.860Z,7.5
2018-12-14T00:31:51.225Z,7.6
2018-12-14T00:32:52.746Z,7.6
2018-12-14T00:33:54.128Z,7.7
2018-12-14T00:34:55.674Z,7.8
2018-12-14T00:35:57.201Z,7.8
2018-12-14T00:36:58.721Z,7.9
2018-12-14T00:37:59.938Z,7.9
2018-12-14T00:39:01.483Z,7.9
2018-12-14T00:40:02.907Z,7.9
2018-12-14T00:41:04.441Z,7.9
2018-12-14T00:42:06.032Z,7.9
2018-12-14T00:43:07.414Z,7.9
2018-12-14T00:44:08.947Z,7.9
2018-12-14T00:45:10.172Z,7.9
2018-12-14T00:46:11.688Z,7.9
2018-12-14T00:47:13.214Z,7.9
2018-12-14T00:48:14.763Z,7.9
2018-12-14T00:49:16.284Z,7.9
2018-12-14T00:50:17.824Z,7.9
2018-12-14T00:51:19.203Z,7.8
2018-12-14T00:52:20.740Z,7.8
2018-12-14T00:53:22.278Z,7.8
2018-12-14T00:54:23.694Z,7.8
2018-12-14T00:55:25.235Z,7.8
2018-12-14T00:56:26.439Z,7.9
2018-12-14T00:57:27.882Z,7.9
2018-12-14T00:58:29.277Z,7.9
2018-12-14T00:59:30.650Z,7.9
2018-12-14T01:00:32.217Z,7.9
2018-12-14T01:01:33.605Z,7.9
2018-12-14T01:02:35.001Z,7.9
2018-12-14T01:03:36.539Z,7.9
2018-12-14T01:04:38.069Z,7.9
2018-12-14T01:05:39.587Z,7.9
2018-12-14T01:06:41.124Z,7.9
2018-12-14T01:07:42.348Z,7.9
2018-12-14T01:08:43.881Z,7.9
2018-12-14T01:09:45.255Z,7.9
2018-12-14T01:10:46.775Z,7.9
2018-12-14T01:11:48.310Z,7.9
2018-12-14T01:12:49.851Z,7.9
2018-12-14T01:13:51.397Z,7.9
2018-12-14T01:14:52.784Z,7.9
2018-12-14T01:15:53.835Z,7.9
2018-12-14T01:16:55.047Z,7.9
2018-12-14T01:17:56.600Z,7.9
2018-12-14T01:18:58.119Z,7.8
2018-12-14T01:19:59.501Z,7.8
2018-12-14T01:21:00.865Z,7.8
2018-12-14T01:22:02.407Z,7.8
2018-12-14T01:23:03.785Z,7.8
2018-12-14T01:24:05.322Z,7.8
2018-12-14T01:25:06.694Z,7.8
2018-12-14T01:26:08.217Z,7.8
2018-12-14T01:27:09.734Z,7.8
2018-12-14T01:28:11.101Z,7.7
2018-12-14T01:29:12.360Z,7.7
2018-12-14T01:30:13.901Z,7.7
2018-12-14T01:31:15.433Z,7.6
2018-12-14T01:32:16.791Z,7.6
2018-12-14T01:33:18.341Z,7.5
2018-12-14T01:34:19.857Z,7.4
2018-12-14T01:35:21.242Z,7.4
2018-12-14T01:36:22.788Z,7.3
2018-12-14T01:37:24.180Z,7.3
2018-12-14T01:38:25.693Z,7.2
2018-12-14T01:39:27.238Z,7.2
2018-12-14T01:40:28.807Z,7.2
2018-12-14T01:41:30.342Z,7.2
2018-12-14T01:42:31.863Z,7.2
2018-12-14T01:43:33.242Z,7.2
2018-12-14T01:44:34.771Z,7.2
2018-12-14T01:45:36.167Z,7.2
2018-12-14T01:46:37.533Z,7.2
2018-12-14T01:47:39.045Z,7.2
2018-12-14T01:48:40.595Z,7.2
2018-12-14T01:49:41.809Z,7.2
2018-12-14T01:50:43.343Z,7.2
2018-12-14T01:51:44.746Z,7.2
2018-12-14T01:52:46.187Z,7.2
2018-12-14T01:53:47.584Z,7.2
2018-12-14T01:54:49.108Z,7.2
2018-12-14T01:55:50.644Z,7.2
2018-12-14T01:56:52.162Z,7.2
2018-12-14T01:57:53.540Z,7.2
2018-12-14T01:58:54.955Z,7.2
2018-12-14T01:59:56.334Z,7.2
2018-12-14T02:00:57.710Z,7.2
2018-12-14T02:01:59.098Z,7.3
2018-12-14T02:03:00.638Z,7.3
2018-12-14T02:04:02.172Z,7.2
2018-12-14T02:05:03.366Z,7.2
2018-12-14T02:06:04.610Z,7.2
2018-12-14T02:07:05.992Z,7.2
2018-12-14T02:08:07.260Z,7.1
2018-12-14T02:09:08.798Z,7.1
2018-12-14T02:10:10.162Z,7.1
2018-12-14T02:11:11.691Z,7.1
2018-12-14T02:12:27.896Z,7.1
2018-12-14T02:13:29.426Z,7.2
2018-12-14T02:14:30.963Z,7.2
2018-12-14T02:15:32.489Z,7.1
2018-12-14T02:16:33.859Z,7.2
2018-12-14T02:17:35.378Z,7.2
2018-12-14T02:18:36.907Z,7.1
2018-12-14T02:19:38.281Z,7.2
2018-12-14T02:20:39.881Z,7.1
2018-12-14T02:21:41.403Z,7.1
2018-12-14T02:22:42.927Z,7.1
2018-12-14T02:23:44.460Z,7.1
2018-12-14T02:24:45.822Z,7.1
2018-12-14T02:25:47.349Z,7.1
2018-12-14T02:26:48.723Z,7.1
2018-12-14T02:27:49.811Z,7.1
2018-12-14T02:28:51.176Z,7.1
2018-12-14T02:29:52.702Z,7.1
2018-12-14T02:30:54.230Z,7.1
2018-12-14T02:31:55.741Z,7.1
2018-12-14T02:32:57.152Z,7.1
2018-12-14T02:33:58.527Z,7.1
2018-12-14T02:35:00.070Z,7.1
2018-12-14T02:36:01.456Z,7.1
2018-12-14T02:37:03.024Z,7.1
2018-12-14T02:38:04.573Z,7.1
2018-12-14T02:39:05.941Z,7.1
2018-12-14T02:40:07.491Z,7.1
2018-12-14T02:41:09.032Z,7.1
2018-12-14T02:42:10.551Z,7.1
2018-12-14T02:43:12.099Z,7.1
2018-12-14T02:44:13.636Z,7.1
2018-12-14T02:45:14.993Z,7.1
2018-12-14T02:46:16.209Z,7.1
2018-12-14T02:47:17.598Z,7.1
2018-12-14T02:48:19.152Z,7.1
2018-12-14T02:49:20.710Z,7.2
2018-12-14T02:50:21.916Z,7.1
2018-12-14T02:51:23.292Z,7.2
2018-12-14T02:52:24.738Z,7.2
2018-12-14T02:53:26.012Z,7.2
2018-12-14T02:54:27.379Z,7.2
2018-12-14T02:55:28.920Z,7.2
2018-12-14T02:56:30.479Z,7.2
2018-12-14T02:57:32.001Z,7.2
2018-12-14T02:58:33.398Z,7.2
2018-12-14T02:59:34.804Z,7.2
2018-12-14T03:00:36.209Z,7.2
2018-12-14T03:01:37.760Z,7.2
2018-12-14T03:02:39.309Z,7.2
2018-12-14T03:03:40.877Z,7.2
2018-12-14T03:04:42.233Z,7.2
2018-12-14T03:05:43.776Z,7.2
2018-12-14T03:06:45.152Z,7.3
2018-12-14T03:07:46.723Z,7.3
2018-12-14T03:08:48.273Z,7.4
2018-12-14T03:09:49.663Z,7.4
2018-12-14T03:10:51.212Z,7.5
2018-12-14T03:11:52.746Z,7.6
2018-12-14T03:12:54.312Z,7.6
2018-12-14T03:13:55.716Z,7.7
2018-12-14T03:14:57.253Z,7.8
2018-12-14T03:15:58.333Z,7.8
2018-12-14T03:16:59.728Z,7.9
2018-12-14T03:18:01.121Z,7.9
2018-12-14T03:19:02.673Z,7.9
2018-12-14T03:20:04.089Z,7.9
2018-12-14T03:21:05.624Z,7.9
2018-12-14T03:22:07.172Z,7.2
2018-12-14T03:23:08.561Z,7.3
2018-12-14T03:24:10.083Z,7.3
2018-12-14T03:25:11.462Z,7.4
2018-12-14T03:26:12.844Z,7.4
2018-12-14T03:27:14.228Z,7.5
2018-12-14T03:28:15.600Z,7.5
2018-12-14T03:29:16.988Z,7.6
2018-12-14T03:30:18.568Z,7.7
2018-12-14T03:31:20.210Z,7.7
2018-12-14T03:32:21.824Z,7.8
2018-12-14T03:33:23.202Z,7.8
2018-12-14T03:34:24.603Z,7.9
2018-12-14T03:35:26.173Z,7.9
2018-12-14T03:36:27.714Z,7.9
2018-12-14T03:37:29.117Z,7.9
2018-12-14T03:38:30.583Z,7.9
2018-12-14T03:39:32.142Z,7.9
2018-12-14T03:40:33.377Z,7.9
2018-12-14T03:41:35.003Z,7.9
2018-12-14T03:42:36.543Z,7.9
2018-12-14T03:43:38.104Z,7.9
2018-12-14T03:44:39.511Z,7.9
2018-12-14T03:45:41.067Z,7.9
2018-12-14T03:46:42.601Z,7.7
2018-12-14T03:47:44.809Z,7.8
2018-12-14T03:48:46.347Z,7.9
2018-12-14T03:49:47.558Z,7.9
2018-12-14T03:50:49.115Z,7.9
2018-12-14T03:51:50.650Z,7.3
2018-12-14T03:52:52.189Z,7.4
2018-12-14T03:53:53.548Z,7.6
2018-12-14T03:54:55.127Z,7.7
2018-12-14T03:55:56.655Z,7.7
2018-12-14T03:56:58.189Z,7.8
2018-12-14T03:57:59.573Z,7.8
2018-12-14T03:59:00.962Z,7.8
2018-12-14T04:00:02.546Z,7.7
2018-12-14T04:01:04.118Z,7.7
2018-12-14T04:02:05.655Z,7.7
2018-12-14T04:03:07.203Z,7.7
2018-12-14T04:04:08.751Z,7.6
2018-12-14T04:05:10.144Z,7.6
2018-12-14T04:06:11.525Z,7.5
2018-12-14T04:07:12.924Z,7.4
2018-12-14T04:08:14.288Z,7.3
2018-12-14T04:09:15.825Z,7.2
2018-12-14T04:10:17.365Z,7.2
2018-12-14T04:11:18.738Z,7.1
2018-12-14T04:12:20.122Z,7.1
2018-12-14T04:13:21.666Z,7.1
2018-12-14T04:14:22.732Z,7.1
2018-12-14T04:15:23.795Z,7.1
2018-12-14T04:16:25.324Z,7.1
2018-12-14T04:17:26.865Z,7.2
2018-12-14T04:18:28.450Z,7.1
2018-12-14T04:19:29.868Z,7.1
2018-12-14T04:20:31.096Z,7.2
2018-12-14T04:21:32.675Z,7.2
2018-12-14T04:22:34.204Z,7.1
2018-12-14T04:23:35.567Z,7.1
2018-12-14T04:24:36.958Z,7.2
2018-12-14T04:25:38.502Z,7.1
2018-12-14T04:26:39.967Z,7.2
2018-12-14T04:27:41.485Z,7.2
2018-12-14T04:28:43.037Z,7.2
2018-12-14T04:29:44.603Z,7.2
2018-12-14T04:30:45.505Z,7.2
2018-12-14T04:31:47.030Z,7.2
2018-12-14T04:32:48.415Z,7.2
2018-12-14T04:33:49.650Z,7.2
2018-12-14T04:34:51.186Z,7.3
2018-12-14T04:35:52.577Z,7.3
2018-12-14T04:36:54.134Z,7.3
2018-12-14T04:37:55.592Z,7.3
2018-12-14T04:38:57.134Z,7.4
2018-12-14T04:39:58.693Z,7.4
2018-12-14T04:41:00.047Z,7.4
2018-12-14T04:42:01.432Z,7.4
2018-12-14T04:43:02.847Z,7.4
2018-12-14T04:44:04.411Z,7.5
2018-12-14T04:45:06.025Z,7.5
2018-12-14T04:46:07.399Z,7.6
2018-12-14T04:47:08.935Z,7.6
2018-12-14T04:48:10.612Z,7.7
2018-12-14T04:49:12.013Z,7.8
2018-12-14T04:50:13.406Z,7.8
2018-12-14T04:51:14.813Z,7.8
2018-12-14T04:52:16.328Z,7.9
2018-12-14T04:53:17.724Z,7.8
2018-12-14T04:54:19.105Z,7.9
2018-12-14T04:55:20.592Z,7.8
2018-12-14T04:56:22.113Z,7.9
2018-12-14T04:57:23.484Z,7.8
2018-12-14T04:58:24.854Z,7.8
2018-12-14T04:59:26.253Z,7.8
2018-12-14T05:00:27.802Z,7.9
2018-12-14T05:01:29.331Z,7.9
2018-12-14T05:02:30.574Z,7.9
2018-12-14T05:03:31.947Z,7.9
2018-12-14T05:04:33.318Z,7.9
2018-12-14T05:05:34.854Z,7.9
2018-12-14T05:06:36.234Z,7.9
2018-12-14T05:07:37.786Z,7.9
2018-12-14T05:08:39.312Z,7.9
2018-12-14T05:09:40.851Z,7.9
2018-12-14T05:10:42.408Z,7.9
2018-12-14T05:11:43.941Z,7.9
2018-12-14T05:12:45.484Z,7.9
2018-12-14T05:13:47.000Z,7.9
2018-12-14T05:14:48.222Z,7.9
2018-12-14T05:15:49.736Z,7.9
2018-12-14T05:16:51.114Z,7.8
2018-12-14T05:17:52.650Z,7.8
2018-12-14T05:18:54.563Z,7.8
2018-12-14T05:19:55.955Z,7.9
2018-12-14T05:20:57.315Z,7.9
2018-12-14T05:21:58.844Z,7.9
2018-12-14T05:23:00.222Z,7.9
2018-12-14T05:24:01.635Z,7.9
2018-12-14T05:25:03.019Z,7.7
2018-12-14T05:26:04.558Z,7.8
2018-12-14T05:27:06.110Z,7.9
2018-12-14T05:28:07.634Z,7.6
2018-12-14T05:29:09.164Z,7.7
2018-12-14T05:30:10.544Z,7.8
2018-12-14T05:31:12.069Z,7.9
2018-12-14T05:32:13.506Z,7.9
2018-12-14T05:33:15.052Z,7.9
2018-12-14T05:34:16.604Z,7.9
2018-12-14T05:35:17.854Z,7.9
2018-12-14T05:36:19.406Z,7.9
2018-12-14T05:37:20.932Z,7.9
2018-12-14T05:38:22.323Z,7.9
2018-12-14T05:39:23.606Z,7.9
2018-12-14T05:40:25.224Z,7.9
2018-12-14T05:41:26.764Z,7.9
2018-12-14T05:42:28.125Z,7.9
2018-12-14T05:43:29.523Z,7.9
2018-12-14T05:44:30.910Z,7.1
2018-12-14T05:45:32.310Z,7.2
2018-12-14T05:46:35.123Z,7.3
2018-12-14T05:47:36.662Z,7.3
2018-12-14T05:48:38.192Z,7.4
2018-12-14T05:49:39.575Z,7.4
2018-12-14T05:50:40.810Z,7.3
2018-12-14T05:51:42.179Z,7.2
2018-12-14T05:52:43.824Z,7.2
2018-12-14T05:53:45.224Z,7.1
2018-12-14T05:54:46.743Z,7.2
2018-12-14T05:55:48.286Z,7.2
2018-12-14T05:56:49.817Z,7.2
2018-12-14T05:57:51.420Z,7.1
2018-12-14T05:58:52.646Z,7.1
2018-12-14T05:59:54.161Z,7.1
2018-12-14T06:00:55.699Z,7.1
2018-12-14T06:01:57.111Z,7.2
2018-12-14T06:02:58.643Z,7.1
2018-12-14T06:04:00.017Z,7.1
2018-12-14T06:05:01.572Z,7.2
2018-12-14T06:06:02.968Z,7.2
2018-12-14T06:07:04.582Z,7.2
2018-12-14T06:08:05.964Z,7.2
2018-12-14T06:09:07.494Z,7.2
2018-12-14T06:10:08.865Z,7.2
2018-12-14T06:11:10.390Z,7.2
2018-12-14T06:12:11.914Z,7.2
2018-12-14T06:13:13.454Z,7.2
2018-12-14T06:14:14.856Z,7.2
2018-12-14T06:15:16.240Z,7.2
2018-12-14T06:16:17.626Z,7.2
2018-12-14T06:17:19.164Z,7.2
2018-12-14T06:18:20.791Z,7.3
2018-12-14T06:19:22.344Z,7.3
2018-12-14T06:20:23.404Z,7.3
2018-12-14T06:21:26.105Z,7.4
2018-12-14T06:22:27.653Z,7.4
2018-12-14T06:23:29.058Z,7.4
2018-12-14T06:24:30.599Z,7.4
2018-12-14T06:25:32.233Z,7.4
2018-12-14T06:26:33.756Z,7.4
2018-12-14T06:27:35.286Z,7.4
2018-12-14T06:28:36.830Z,7.4
2018-12-14T06:29:38.041Z,7.5
2018-12-14T06:30:39.420Z,7.6
2018-12-14T06:31:40.962Z,7.6
2018-12-14T06:32:42.358Z,7.7
2018-12-14T06:33:43.905Z,7.8
2018-12-14T06:34:45.452Z,7.8
2018-12-14T06:35:48.282Z,7.9
2018-12-14T06:36:49.895Z,7.9
2018-12-14T06:37:51.313Z,7.9
2018-12-14T06:38:52.713Z,7.9
2018-12-14T06:39:54.263Z,7.9
2018-12-14T06:40:55.653Z,7.9
2018-12-14T06:41:57.514Z,7.2
2018-12-14T06:42:59.252Z,7.3
2018-12-14T06:44:00.517Z,7.4
2018-12-14T06:45:02.064Z,7.5
2018-12-14T06:46:03.455Z,7.5
2018-12-14T06:47:04.978Z,7.6
2018-12-14T06:48:06.500Z,7.7
2018-12-14T06:49:08.041Z,7.8
2018-12-14T06:50:09.422Z,7.8
2018-12-14T06:51:10.797Z,7.9
2018-12-14T06:52:12.182Z,7.9
2018-12-14T06:53:13.742Z,7.9
2018-12-14T06:54:15.313Z,7.9
2018-12-14T06:55:16.694Z,7.9
2018-12-14T06:56:18.234Z,7.9
2018-12-14T06:57:19.774Z,7.2
2018-12-14T06:58:21.292Z,7.3
2018-12-14T06:59:22.534Z,7.3
2018-12-14T07:00:24.070Z,7.3
2018-12-14T07:01:25.288Z,7.3
2018-12-14T07:02:26.533Z,7.3
2018-12-14T07:03:27.958Z,7.3
2018-12-14T07:04:29.522Z,7.3
2018-12-14T07:05:31.065Z,7.3
2018-12-14T07:06:32.463Z,7.3
2018-12-14T07:07:34.018Z,7.3
2018-12-14T07:08:35.399Z,7.3
2018-12-14T07:09:36.940Z,7.3
2018-12-14T07:10:38.708Z,7.4
2018-12-14T07:11:40.115Z,7.4
2018-12-14T07:12:42.222Z,7.4
2018-12-14T07:13:43.763Z,7.4
2018-12-14T07:14:45.293Z,7.4
2018-12-14T07:15:46.844Z,7.4
2018-12-14T07:16:48.395Z,7.4
2018-12-14T07:17:49.804Z,7.4
2018-12-14T07:18:51.349Z,7.4
2018-12-14T07:19:52.784Z,7.4
2018-12-14T07:20:54.175Z,7.4
2018-12-14T07:21:55.621Z,7.4
2018-12-14T07:22:58.487Z,7.5
2018-12-14T07:23:59.881Z,7.5
2018-12-14T07:25:01.419Z,7.6
2018-12-14T07:26:02.952Z,7.6
2018-12-14T07:27:04.488Z,7.7
2018-12-14T07:28:06.047Z,7.7
2018-12-14T07:29:07.432Z,7.7
2018-12-14T07:30:08.985Z,7.6
2018-12-14T07:31:10.797Z,7.6
2018-12-14T07:32:12.325Z,7.5
2018-12-14T07:33:13.894Z,7.4
2018-12-14T07:34:15.436Z,7.2
2018-12-14T07:35:16.985Z,7.2
2018-12-14T07:36:18.369Z,7.1
2018-12-14T07:37:19.916Z,7.1
2018-12-14T07:38:21.158Z,7.1
2018-12-14T07:39:22.389Z,7.1
2018-12-14T07:40:23.935Z,7.2
2018-12-14T07:41:25.306Z,7.1
2018-12-14T07:42:26.679Z,7.1
2018-12-14T07:43:30.004Z,7.2
2018-12-14T07:44:32.435Z,7.2
2018-12-14T07:45:33.940Z,7.1
2018-12-14T07:46:35.163Z,7.2
2018-12-14T07:47:36.727Z,7.2
2018-12-14T07:48:38.287Z,7.2
2018-12-14T07:49:39.352Z,7.2
2018-12-14T07:50:40.866Z,7.2
2018-12-14T07:51:42.400Z,7.2
2018-12-14T07:52:43.810Z,7.2
2018-12-14T07:53:45.356Z,7.2
2018-12-14T07:54:46.901Z,7.2
2018-12-14T07:55:48.288Z,7.2
2018-12-14T07:56:49.822Z,7.3
2018-12-14T07:57:51.218Z,7.4
2018-12-14T07:58:52.606Z,7.4
2018-12-14T07:59:54.139Z,7.5
2018-12-14T08:00:55.523Z,7.6
2018-12-14T08:01:57.050Z,7.7
2018-12-14T08:02:58.607Z,7.7
2018-12-14T08:04:00.149Z,7.8
2018-12-14T08:05:01.523Z,7.8
2018-12-14T08:06:03.076Z,7.8
2018-12-14T08:07:04.617Z,7.8
2018-12-14T08:08:06.153Z,7.8
2018-12-14T08:09:07.689Z,7.8
2018-12-14T08:10:08.911Z,7.8
2018-12-14T08:11:10.472Z,7.8
2018-12-14T08:12:12.022Z,7.9
2018-12-14T08:13:13.575Z,7.8
2018-12-14T08:14:14.975Z,7.8
2018-12-14T08:15:16.378Z,7.9
2018-12-14T08:16:17.916Z,7.9
2018-12-14T08:17:19.302Z,7.9
2018-12-14T08:18:20.823Z,7.9
2018-12-14T08:19:22.435Z,7.9
2018-12-14T08:20:23.963Z,7.2
2018-12-14T08:21:25.400Z,7.3
2018-12-14T08:22:26.790Z,7.3
2018-12-14T08:23:28.173Z,7.3
2018-12-14T08:24:29.706Z,7.4
2018-12-14T08:25:31.091Z,7.4
2018-12-14T08:26:32.462Z,7.4
2018-12-14T08:27:33.827Z,7.4
2018-12-14T08:28:35.259Z,7.4
2018-12-14T08:29:36.639Z,7.5
2018-12-14T08:30:38.183Z,7.5
2018-12-14T08:31:39.749Z,7.5
2018-12-14T08:32:41.117Z,7.6
2018-12-14T08:33:42.657Z,7.6
2018-12-14T08:34:44.031Z,7.6
2018-12-14T08:35:45.257Z,7.7
2018-12-14T08:36:46.653Z,7.7
2018-12-14T08:37:48.188Z,7.7
2018-12-14T08:38:49.761Z,7.7
2018-12-14T08:39:51.143Z,7.7
2018-12-14T08:40:52.709Z,7.8
2018-12-14T08:41:54.239Z,7.7
2018-12-14T08:42:55.651Z,7.8
2018-12-14T08:43:56.729Z,7.8
2018-12-14T08:44:58.312Z,7.8
2018-12-14T08:45:59.847Z,7.8
2018-12-14T08:47:01.250Z,7.8
2018-12-14T08:48:02.771Z,7.9
2018-12-14T08:49:04.146Z,7.9
2018-12-14T08:50:05.533Z,7.9
2018-12-14T08:51:06.941Z,7.9
2018-12-14T08:52:08.543Z,7.9
2018-12-14T08:53:09.977Z,7.9
2018-12-14T08:54:11.373Z,7.9
2018-12-14T08:55:12.738Z,7.9
2018-12-14T08:56:14.257Z,7.9
2018-12-14T08:57:15.478Z,7.9
2018-12-14T08:58:17.003Z,7.8
2018-12-14T08:59:18.541Z,7.9
2018-12-14T09:00:20.078Z,7.8
2018-12-14T09:01:21.607Z,7.8
2018-12-14T09:02:22.843Z,7.8
2018-12-14T09:03:24.234Z,7.8
2018-12-14T09:04:25.610Z,7.7
2018-12-14T09:05:26.993Z,7.7
2018-12-14T09:06:28.534Z,7.6
2018-12-14T09:07:30.104Z,7.5
2018-12-14T09:08:31.640Z,7.4
2018-12-14T09:09:33.026Z,7.2
2018-12-14T09:10:34.253Z,7.2
2018-12-14T09:11:35.841Z,7.2
2018-12-14T09:12:37.078Z,7.2
2018-12-14T09:13:38.454Z,7.2
2018-12-14T09:14:40.002Z,7.2
2018-12-14T09:15:41.236Z,7.2
2018-12-14T09:16:42.615Z,7.2
2018-12-14T09:17:44.194Z,7.2
2018-12-14T09:18:45.582Z,7.2
2018-12-14T09:19:46.974Z,7.2
2018-12-14T09:20:48.506Z,7.2
2018-12-14T09:21:49.744Z,7.2
2018-12-14T09:22:51.135Z,7.2
2018-12-14T09:23:52.653Z,7.2
2018-12-14T09:24:54.185Z,7.2
2018-12-14T09:25:55.712Z,7.2
2018-12-14T09:26:57.266Z,7.2
2018-12-14T09:27:58.791Z,7.2
2018-12-14T09:29:00.195Z,7.3
2018-12-14T09:30:01.737Z,7.3
2018-12-14T09:31:03.127Z,7.3
2018-12-14T09:32:04.674Z,7.4
2018-12-14T09:33:06.226Z,7.4
2018-12-14T09:34:07.625Z,7.5
2018-12-14T09:35:09.178Z,7.5
2018-12-14T09:36:10.422Z,7.5
2018-12-14T09:37:11.972Z,7.5
2018-12-14T09:38:13.403Z,7.6
2018-12-14T09:39:14.810Z,7.6
2018-12-14T09:40:16.024Z,7.6
2018-12-14T09:41:17.806Z,7.6
2018-12-14T09:42:19.194Z,7.5
2018-12-14T09:43:20.719Z,7.6
2018-12-14T09:44:22.269Z,7.6
2018-12-14T09:45:23.669Z,7.6
2018-12-14T09:46:25.253Z,7.7
2018-12-14T09:47:26.498Z,7.7
2018-12-14T09:48:27.897Z,7.8
2018-12-14T09:49:29.469Z,7.8
2018-12-14T09:50:31.036Z,7.8
2018-12-14T09:51:32.611Z,7.8
2018-12-14T09:52:34.016Z,7.7
2018-12-14T09:53:35.604Z,7.8
2018-12-14T09:54:37.005Z,7.7
2018-12-14T09:55:38.545Z,7.7
2018-12-14T09:56:39.930Z,7.7
2018-12-14T09:57:41.491Z,7.7
2018-12-14T09:58:43.040Z,7.7
2018-12-14T09:59:44.418Z,7.7
2018-12-14T10:00:45.972Z,7.7
2018-12-14T10:01:47.573Z,7.7
2018-12-14T10:02:49.110Z,7.7
2018-12-14T10:03:50.514Z,7.7
2018-12-14T10:04:52.059Z,7.7
2018-12-14T10:05:53.276Z,7.8
2018-12-14T10:06:54.872Z,7.8
2018-12-14T10:07:56.088Z,7.8
2018-12-14T10:08:57.164Z,7.8
2018-12-14T10:09:58.526Z,7.9
2018-12-14T10:10:59.932Z,7.9
2018-12-14T10:12:01.295Z,7.9
2018-12-14T10:13:02.687Z,7.8
2018-12-14T10:14:04.234Z,7.8
2018-12-14T10:15:05.774Z,7.8
2018-12-14T10:16:07.160Z,7.8
2018-12-14T10:17:08.704Z,7.8
2018-12-14T10:18:10.096Z,7.8
2018-12-14T10:19:11.648Z,7.9
2018-12-14T10:20:12.895Z,7.9
2018-12-14T10:21:14.425Z,7.9
2018-12-14T10:22:15.981Z,7.9
2018-12-14T10:23:17.498Z,7.9
2018-12-14T10:24:18.870Z,7.9
2018-12-14T10:25:20.438Z,7.9
2018-12-14T10:26:21.832Z,7.9
2018-12-14T10:27:23.416Z,7.9
2018-12-14T10:28:24.950Z,7.9
2018-12-14T10:29:26.402Z,7.9
2018-12-14T10:30:27.958Z,7.8
2018-12-14T10:31:29.352Z,7.8
2018-12-14T10:32:30.913Z,7.8
2018-12-14T10:33:32.475Z,7.8
2018-12-14T10:34:33.853Z,7.8
2018-12-14T10:35:35.220Z,7.8
2018-12-14T10:36:36.616Z,7.8
2018-12-14T10:37:37.999Z,7.8
2018-12-14T10:38:39.398Z,7.8
2018-12-14T10:39:40.942Z,7.8
2018-12-14T10:40:42.321Z,7.8
2018-12-14T10:41:43.863Z,7.7
2018-12-14T10:42:45.218Z,7.6
2018-12-14T10:43:46.600Z,7.5
2018-12-14T10:44:47.826Z,7.4
2018-12-14T10:45:48.907Z,7.3
2018-12-14T10:46:50.309Z,7.2
2018-12-14T10:47:51.881Z,7.2
2018-12-14T10:48:53.411Z,7.2
2018-12-14T10:49:54.782Z,7.1
2018-12-14T10:50:56.188Z,7.1
2018-12-14T10:51:57.723Z,7.2
2018-12-14T10:52:59.260Z,7.2
2018-12-14T10:54:00.780Z,7.2
2018-12-14T10:55:02.331Z,7.1
2018-12-14T10:56:03.714Z,7.2
2018-12-14T10:57:05.124Z,7.2
2018-12-14T10:58:06.694Z,7.1
2018-12-14T10:59:08.081Z,7.2
2018-12-14T11:00:09.498Z,7.2
2018-12-14T11:01:15.534Z,7.2
2018-12-14T11:02:16.615Z,7.2
2018-12-14T11:03:18.192Z,7.2
2018-12-14T11:04:19.589Z,7.2
2018-12-14T11:05:20.982Z,7.2
2018-12-14T11:06:22.388Z,7.2
2018-12-14T11:07:23.927Z,7.2
2018-12-14T11:08:25.354Z,7.2
2018-12-14T11:09:26.729Z,7.2
2018-12-14T11:10:28.099Z,7.3
2018-12-14T11:11:29.484Z,7.4
2018-12-14T11:12:31.034Z,7.5
2018-12-14T11:13:32.417Z,7.6
2018-12-14T11:14:33.962Z,7.7
2018-12-14T11:15:35.530Z,7.8
2018-12-14T11:16:36.999Z,7.9
2018-12-14T11:17:38.567Z,7.9
2018-12-14T11:18:40.125Z,7.9
2018-12-14T11:19:41.652Z,7.4
2018-12-14T11:20:42.865Z,7.5
2018-12-14T11:21:44.405Z,7.6
2018-12-14T11:22:45.949Z,7.7
2018-12-14T11:23:47.478Z,7.7
2018-12-14T11:24:48.857Z,7.8
2018-12-14T11:25:50.236Z,7.9
2018-12-14T11:26:51.766Z,7.9
2018-12-14T11:27:53.349Z,7.2
2018-12-14T11:28:54.879Z,7.3
2018-12-14T11:29:56.287Z,7.4
2018-12-14T11:30:57.829Z,7.5
2018-12-14T11:31:59.129Z,7.6
2018-12-14T11:33:00.751Z,7.7
2018-12-14T11:34:02.287Z,7.7
2018-12-14T11:35:03.674Z,7.8
2018-12-14T11:36:05.232Z,7.8
2018-12-14T11:37:06.623Z,7.9
2018-12-14T11:38:08.033Z,7.9
2018-12-14T11:39:09.409Z,7.9
2018-12-14T11:40:11.054Z,7.8
2018-12-14T11:41:19.390Z,7.8
2018-12-14T11:42:20.688Z,7.8
2018-12-14T11:43:22.242Z,7.9
2018-12-14T11:44:23.772Z,7.9
2018-12-14T11:45:25.349Z,7.1
2018-12-14T11:46:26.736Z,7.3
2018-12-14T11:47:29.685Z,7.4
2018-12-14T11:48:31.232Z,7.6
2018-12-14T11:49:32.769Z,7.6
2018-12-14T11:50:33.995Z,7.7
2018-12-14T11:51:35.393Z,7.7
2018-12-14T11:52:36.934Z,7.6
2018-12-14T11:53:38.323Z,7.7
2018-12-14T11:54:39.570Z,7.6
2018-12-14T11:55:41.111Z,7.6
2018-12-14T11:56:42.643Z,7.6
2018-12-14T11:57:44.208Z,7.6
2018-12-14T11:58:45.576Z,7.7
2018-12-14T11:59:46.825Z,7.8
2018-12-14T12:00:48.195Z,7.8
2018-12-14T12:01:49.575Z,7.9
2018-12-14T12:02:51.114Z,7.9
2018-12-14T12:03:52.503Z,7.9
2018-12-14T12:04:53.923Z,7.9
2018-12-14T12:05:55.302Z,7.3
2018-12-14T12:06:56.848Z,7.5
2018-12-14T12:07:57.913Z,7.6
2018-12-14T12:08:59.316Z,7.7
2018-12-14T12:10:00.868Z,7.8
2018-12-14T12:11:02.425Z,7.9
2018-12-14T12:12:03.963Z,7.9
2018-12-14T12:13:05.354Z,7.9
2018-12-14T12:14:06.725Z,7.8
2018-12-14T12:15:09.542Z,7.7
2018-12-14T12:16:11.066Z,7.7
2018-12-14T12:17:12.505Z,7.7
2018-12-14T12:18:13.912Z,7.7
2018-12-14T12:19:15.374Z,7.6
2018-12-14T12:20:16.618Z,7.6
2018-12-14T12:21:17.862Z,7.4
2018-12-14T12:22:19.410Z,7.3
2018-12-14T12:23:22.150Z,7.2
2018-12-14T12:24:23.693Z,7.1
2018-12-14T12:25:25.249Z,7.2
2018-12-14T12:26:26.782Z,7.2
2018-12-14T12:27:28.165Z,7.1
2018-12-14T12:28:29.704Z,7.2
2018-12-14T12:29:31.255Z,7.1
2018-12-14T12:30:32.792Z,7.1
2018-12-14T12:31:34.015Z,7.1
2018-12-14T12:32:35.546Z,7.1
2018-12-14T12:33:37.091Z,7.1
2018-12-14T12:34:38.632Z,7.1
2018-12-14T12:35:40.176Z,7.2
2018-12-14T12:36:41.555Z,7.1
2018-12-14T12:37:43.022Z,7.1
2018-12-14T12:38:44.575Z,7.1
2018-12-14T12:39:46.114Z,7.1
2018-12-14T12:40:47.666Z,7.2
2018-12-14T12:41:49.082Z,7.2
2018-12-14T12:42:50.622Z,7.2
2018-12-14T12:43:52.027Z,7.2
2018-12-14T12:44:53.460Z,7.2
2018-12-14T12:45:54.842Z,7.2
2018-12-14T12:46:56.395Z,7.2
2018-12-14T12:47:57.814Z,7.2
2018-12-14T12:48:59.234Z,7.2
2018-12-14T12:50:00.629Z,7.3
2018-12-14T12:51:04.849Z,7.3
2018-12-14T12:52:06.397Z,7.3
2018-12-14T12:53:07.631Z,7.3
2018-12-14T12:54:09.018Z,7.4
2018-12-14T12:55:10.458Z,7.4
2018-12-14T12:56:12.040Z,7.4
2018-12-14T12:57:13.651Z,7.4
2018-12-14T12:58:15.182Z,7.4
2018-12-14T12:59:16.567Z,7.5
2018-12-14T13:00:17.979Z,7.5
2018-12-14T13:01:19.613Z,7.5
2018-12-14T13:02:21.212Z,7.5
2018-12-14T13:03:22.636Z,7.5
2018-12-14T13:04:24.039Z,7.5
2018-12-14T13:05:25.643Z,7.6
2018-12-14T13:06:27.022Z,7.6
2018-12-14T13:07:28.261Z,7.6
2018-12-14T13:08:29.803Z,7.6
2018-12-14T13:09:31.352Z,7.6
2018-12-14T13:10:32.903Z,7.7
2018-12-14T13:11:34.463Z,7.7
2018-12-14T13:12:35.998Z,7.7
2018-12-14T13:13:37.234Z,7.7
2018-12-14T13:14:41.704Z,7.7
2018-12-14T13:15:42.811Z,7.7
2018-12-14T13:16:44.218Z,7.8
2018-12-14T13:17:45.619Z,7.8
2018-12-14T13:18:47.219Z,7.8
2018-12-14T13:19:48.768Z,7.8
2018-12-14T13:20:50.309Z,7.8
2018-12-14T13:21:51.528Z,7.8
2018-12-14T13:22:52.931Z,7.8
2018-12-14T13:23:54.343Z,7.8
2018-12-14T13:24:55.925Z,7.8
2018-12-14T13:25:57.457Z,7.8
2018-12-14T13:26:58.992Z,7.8
2018-12-14T13:28:00.383Z,7.8
2018-12-14T13:29:01.925Z,7.8
2018-12-14T13:30:03.477Z,7.8
2018-12-14T13:31:04.880Z,7.7
2018-12-14T13:32:06.405Z,7.7
2018-12-14T13:33:07.943Z,7.8
2018-12-14T13:34:10.407Z,7.8
2018-12-14T13:35:11.788Z,7.8
2018-12-14T13:36:13.182Z,7.8
2018-12-14T13:37:14.753Z,7.8
2018-12-14T13:38:16.532Z,7.9
2018-12-14T13:39:18.216Z,7.9
2018-12-14T13:40:19.895Z,7.9
2018-12-14T13:41:21.474Z,7.9
2018-12-14T13:42:22.778Z,7.9
2018-12-14T13:43:24.269Z,7.9
2018-12-14T13:44:25.920Z,7.9
2018-12-14T13:45:27.367Z,7.9
2018-12-14T13:46:28.979Z,7.9
2018-12-14T13:47:30.752Z,7.9
2018-12-14T13:48:32.335Z,7.9
2018-12-14T13:49:33.937Z,7.9
2018-12-14T13:50:35.486Z,7.9
2018-12-14T13:51:37.037Z,7.8
2018-12-14T13:52:38.441Z,7.8
2018-12-14T13:53:40.006Z,7.8
2018-12-14T13:54:41.563Z,7.8
2018-12-14T13:55:42.970Z,7.8
2018-12-14T13:56:44.521Z,7.8
2018-12-14T13:57:47.093Z,7.8
2018-12-14T13:58:48.479Z,7.7
2018-12-14T13:59:49.892Z,7.7
2018-12-14T14:00:51.764Z,7.6
2018-12-14T14:01:53.158Z,7.5
2018-12-14T14:02:54.842Z,7.5
2018-12-14T14:03:56.087Z,7.4
2018-12-14T14:04:57.542Z,7.3
2018-12-14T14:05:59.074Z,7.2
2018-12-14T14:07:00.614Z,7.2